Time;durP1;ratioP1;P1;durP2;ratioP2;P2;SDS_P1;SDS_P2;PMS_P1;PMS_P2;Temp;Humidity;BMP_temperature;BMP_pressure;BME280_temperature;BME280_humidity;BME280_pressure;Samples;Min_cycle;Max_cycle;Signal;HPM_P1;HPM_P2
2022/10/08 00:00:15;;;;;;;20.00;11.43;;;;;;;11.40;84.86;100884.97;5074977;57;1143311;-68
2022/10/08 00:05:22;;;;;;;27.87;11.20;;;;;;;11.34;84.52;100877.00;5142106;57;1143202;-68
2022/10/08 00:10:28;;;;;;;21.30;10.73;;;;;;;11.38;84.73;100873.64;5142394;57;1143218;-66
2022/10/08 00:15:37;;;;;;;20.03;10.30;;;;;;;11.43;85.11;100870.18;5151906;57;1143597;-68
2022/10/08 00:20:43;;;;;;;21.53;10.57;;;;;;;11.44;84.93;100857.30;5095988;57;1143435;-67
2022/10/08 00:25:48;;;;;;;21.80;10.87;;;;;;;11.38;84.47;100860.41;5054747;58;1143230;-68
2022/10/08 00:30:54;;;;;;;22.07;11.70;;;;;;;11.17;83.89;100858.39;5070492;58;1143252;-69
2022/10/08 00:36:05;;;;;;;29.57;15.80;;;;;;;11.08;84.09;100856.45;5126946;57;1143214;-66
2022/10/08 00:41:17;;;;;;;33.80;16.33;;;;;;;10.90;84.08;100850.70;5163503;57;1143361;-69
2022/10/08 00:46:42;;;;;;;20.60;11.70;;;;;;;10.77;84.36;100847.28;5107413;57;1141441;-68
2022/10/08 00:51:54;;;;;;;23.53;10.90;;;;;;;10.72;84.83;100850.73;5069960;57;1141040;-69
2022/10/08 00:57:00;;;;;;;20.20;10.53;;;;;;;10.64;85.11;100845.16;5066321;58;1141126;-69
2022/10/08 01:02:07;;;;;;;16.63;8.80;;;;;;;10.63;85.15;100846.11;5067754;58;1140594;-69
2022/10/08 01:07:20;;;;;;;19.03;9.70;;;;;;;10.60;85.41;100830.94;5067586;57;1139044;-67
2022/10/08 01:12:29;;;;;;;;;;;;;;;10.62;85.65;100819.30;5143553;57;1139101;-67
2022/10/08 01:18:02;;;;;;;18.27;9.87;;;;;;;10.63;85.92;100813.53;5118952;57;974410;-66
2022/10/08 01:23:46;;;;;;;39.07;16.50;;;;;;;10.58;85.52;100808.56;5151420;57;1134780;-69
2022/10/08 01:29:02;;;;;;;64.90;27.43;;;;;;;10.49;85.19;100799.99;5149443;57;1143213;-66
2022/10/08 01:34:21;;;;;;;54.10;23.57;;;;;;;10.47;85.62;100799.26;5133876;57;1143197;-68
2022/10/08 01:39:31;;;;;;;44.40;20.67;;;;;;;10.46;85.83;100797.09;5143026;57;1143231;-67
2022/10/08 01:44:47;;;;;;;39.23;16.77;;;;;;;10.40;85.67;100800.16;5149443;57;1143233;-67
2022/10/08 01:50:01;;;;;;;33.47;15.93;;;;;;;10.31;85.70;100801.31;5154249;57;1143180;-68
2022/10/08 01:55:12;;;;;;;44.10;16.77;;;;;;;10.19;85.75;100801.25;5162521;57;1143203;-68
2022/10/08 02:00:19;;;;;;;41.27;19.60;;;;;;;10.12;85.96;100792.50;5162989;57;1143456;-67
2022/10/08 02:05:29;;;;;;;39.63;18.73;;;;;;;10.12;86.29;100793.82;5143494;57;1143220;-70
2022/10/08 02:10:36;;;;;;;34.70;15.43;;;;;;;10.09;86.32;100786.11;5142813;56;1143353;-68
2022/10/08 02:15:57;;;;;;;25.13;11.93;;;;;;;9.96;85.83;100779.53;5151897;57;1143238;-68
2022/10/08 02:21:08;;;;;;;22.37;10.37;;;;;;;9.88;86.63;100764.72;5148385;57;1141133;-68
2022/10/08 02:26:17;;;;;;;25.97;12.60;;;;;;;9.81;86.56;100761.64;5076853;58;1141187;-67
2022/10/08 02:31:32;;;;;;;32.57;17.33;;;;;;;9.84;87.11;100772.00;5158947;57;1141118;-68
2022/10/08 02:36:41;;;;;;;42.23;18.33;;;;;;;9.82;87.13;100762.49;5162516;57;1141338;-69
2022/10/08 02:41:54;;;;;;;36.07;16.63;;;;;;;9.85;87.45;100760.96;5149602;57;1139013;-69
2022/10/08 02:47:04;;;;;;;39.47;18.77;;;;;;;9.83;87.59;100760.22;5149803;57;1139026;-67
2022/10/08 02:52:13;;;;;;;33.73;16.63;;;;;;;9.81;87.73;100760.80;5159196;57;1139127;-68
2022/10/08 02:57:44;;;;;;;20.80;12.07;;;;;;;9.82;87.55;100765.13;5140192;57;1139160;-66
2022/10/08 03:03:04;;;;;;;27.27;13.53;;;;;;;9.79;87.07;100762.70;5145340;56;1139039;-69
2022/10/08 03:08:14;;;;;;;27.00;13.70;;;;;;;9.75;87.44;100763.89;5137848;57;1139073;-69
2022/10/08 03:13:20;;;;;;;28.43;13.40;;;;;;;9.73;88.12;100765.31;5137484;57;1139310;-67
2022/10/08 03:18:27;;;;;;;36.13;18.73;;;;;;;9.69;88.39;100759.03;5151025;57;1136896;-67
2022/10/08 03:23:33;;;;;;;35.20;16.53;;;;;;;9.64;88.64;100759.81;5047938;58;1137214;-65
2022/10/08 03:28:39;;;;;;;23.70;13.63;;;;;;;9.60;88.69;100747.33;5081548;57;1141059;-67
2022/10/08 03:33:51;;;;;;;31.57;15.20;;;;;;;9.60;88.99;100745.16;5165237;57;1141173;-69
2022/10/08 03:38:57;;;;;;;24.10;12.97;;;;;;;9.58;89.33;100743.95;5165112;57;1141147;-69
2022/10/08 03:44:11;;;;;;;23.50;11.13;;;;;;;9.55;89.52;100745.47;5165119;57;1141397;-68
2022/10/08 03:49:17;;;;;;;20.80;10.53;;;;;;;9.53;89.79;100740.77;5165112;57;1141093;-67
2022/10/08 03:54:22;;;;;;;21.60;13.07;;;;;;;9.53;90.17;100736.33;5163111;56;1141091;-68
2022/10/08 03:59:28;;;;;;;24.90;13.17;;;;;;;9.52;90.09;100720.59;5162587;56;1141145;-66
2022/10/08 04:04:34;;;;;;;30.23;17.13;;;;;;;9.55;90.17;100724.82;5162673;57;1141357;-67
2022/10/08 04:09:39;;;;;;;32.10;16.27;;;;;;;9.52;90.73;100720.12;5162188;56;1141079;-67
2022/10/08 04:14:46;;;;;;;29.53;16.00;;;;;;;9.48;90.80;100716.47;5083643;57;1141121;-67
2022/10/08 04:19:52;;;;;;;27.43;16.63;;;;;;;9.45;91.21;100705.67;5114726;57;1141192;-65
2022/10/08 04:24:58;;;;;;;31.63;15.13;;;;;;;9.42;91.11;100719.09;5158182;57;1141139;-66
2022/10/08 04:30:05;;;;;;;30.53;16.10;;;;;;;9.45;91.29;100720.20;5161275;57;1141324;-68
2022/10/08 04:35:11;;;;;;;25.73;15.70;;;;;;;9.52;91.85;100717.95;5156875;57;1141229;-66
2022/10/08 04:40:16;;;;;;;29.37;14.00;;;;;;;9.53;92.27;100711.25;5162783;57;1141133;-66
2022/10/08 04:45:22;;;;;;;23.83;13.13;;;;;;;9.52;91.98;100706.92;5156873;57;1141120;-69
2022/10/08 04:50:28;;;;;;;26.60;14.93;;;;;;;9.59;92.83;100699.90;5162510;57;1141105;-69
2022/10/08 04:55:34;;;;;;;33.63;18.60;;;;;;;9.64;92.92;100702.56;5162546;56;1141360;-68
2022/10/08 05:00:40;;;;;;;33.03;17.60;;;;;;;9.70;93.55;100697.34;5162434;56;1141260;-68
2022/10/08 05:05:47;;;;;;;28.50;16.90;;;;;;;9.66;93.41;100702.45;5162433;57;1140886;-65
2022/10/08 05:10:53;;;;;;;20.37;12.57;;;;;;;9.63;93.29;100699.55;5162563;56;1141158;-67
2022/10/08 05:16:04;;;;;;;52.27;28.90;;;;;;;9.68;93.97;100719.04;5108479;57;1141112;-64
2022/10/08 05:21:13;;;;;;;30.70;15.97;;;;;;;9.64;96.51;100710.48;5077530;58;1141137;-65
2022/10/08 05:26:23;;;;;;;32.47;17.30;;;;;;;9.67;100.00;100710.27;5077105;58;1141233;-67
2022/10/08 05:31:30;;;;;;;27.87;17.03;;;;;;;9.78;100.00;100704.22;5159533;57;1143446;-65
2022/10/08 05:36:36;;;;;;;34.07;16.67;;;;;;;9.91;100.00;100685.25;5162528;57;1143356;-68
2022/10/08 05:41:42;;;;;;;22.13;15.43;;;;;;;10.09;100.00;100684.36;5163232;57;1143244;-68
2022/10/08 05:46:49;;;;;;;26.03;15.97;;;;;;;10.24;100.00;100687.23;5163068;57;1145249;-68
2022/10/08 05:51:55;;;;;;;25.67;16.37;;;;;;;10.38;100.00;100692.86;5163086;56;1145544;-68
2022/10/08 05:57:01;;;;;;;30.57;17.80;;;;;;;10.50;100.00;100690.62;5163127;56;1145291;-68
2022/10/08 06:02:09;;;;;;;31.37;18.37;;;;;;;10.69;100.00;100687.45;5163086;57;1145301;-65
2022/10/08 06:07:15;;;;;;;32.70;17.93;;;;;;;10.88;100.00;100683.75;5163147;56;1145332;-65
2022/10/08 06:12:21;;;;;;;28.43;17.23;;;;;;;11.07;100.00;100673.92;5163177;56;1145280;-67
2022/10/08 06:17:27;;;;;;;28.30;17.87;;;;;;;11.21;100.00;100689.58;5084028;57;1145208;-68
2022/10/08 06:22:33;;;;;;;21.73;14.80;;;;;;;11.33;100.00;100685.97;5157737;57;1143324;-66
2022/10/08 06:27:39;;;;;;;18.20;11.67;;;;;;;11.45;100.00;100691.66;5159478;57;1143353;-65
2022/10/08 06:32:45;;;;;;;25.23;15.83;;;;;;;11.63;100.00;100699.45;5163013;57;1143244;-68
2022/10/08 06:37:51;;;;;;;26.43;14.57;;;;;;;11.81;100.00;100686.59;5163219;57;1143260;-69
2022/10/08 06:42:57;;;;;;;18.03;12.03;;;;;;;12.04;100.00;100685.23;5162972;57;1143514;-66
2022/10/08 06:48:03;;;;;;;28.43;15.60;;;;;;;12.16;100.00;100683.75;5162998;56;1143209;-66
2022/10/08 06:53:11;;;;;;;24.53;14.37;;;;;;;12.30;100.00;100693.22;5124077;57;1143428;-65
2022/10/08 06:58:16;;;;;;;24.40;14.50;;;;;;;12.38;100.00;100711.98;5165296;56;1143154;-68
2022/10/08 07:03:22;;;;;;;25.37;14.97;;;;;;;12.45;100.00;100716.32;5165284;56;1143269;-67
2022/10/08 07:08:29;;;;;;;28.87;15.43;;;;;;;12.55;100.00;100713.25;5165188;56;1143448;-67
2022/10/08 07:13:35;;;;;;;30.57;15.57;;;;;;;12.74;100.00;100705.45;5151093;56;1143234;-69
2022/10/08 07:18:42;;;;;;;23.00;12.47;;;;;;;13.00;100.00;100701.44;5080811;58;1143454;-67
2022/10/08 07:23:49;;;;;;;22.00;12.93;;;;;;;13.26;100.00;100703.26;5080119;58;1143552;-68
2022/10/08 07:28:59;;;;;;;26.30;14.67;;;;;;;13.54;100.00;100700.38;5119345;57;1143257;-65
2022/10/08 07:34:10;;;;;;;22.03;13.93;;;;;;;13.71;100.00;100695.77;5165019;57;1143227;-67
2022/10/08 07:39:18;;;;;;;29.73;13.30;;;;;;;13.88;100.00;100698.75;5145953;57;1143196;-66
2022/10/08 07:44:24;;;;;;;27.07;13.00;;;;;;;14.18;100.00;100697.34;5126762;57;1141156;-66
2022/10/08 07:49:31;;;;;;;16.48;10.60;;;;;;;14.46;100.00;100704.19;5174874;57;1145158;-67
2022/10/08 07:54:37;;;;;;;21.37;12.23;;;;;;;14.69;100.00;100719.73;5123199;57;1145208;-66
2022/10/08 07:59:42;;;;;;;24.20;12.93;;;;;;;14.83;100.00;100705.15;5079370;58;1145280;-65
2022/10/08 08:04:49;;;;;;;16.60;10.53;;;;;;;14.95;100.00;100707.19;5079734;58;1145252;-67
2022/10/08 08:09:55;;;;;;;22.37;10.63;;;;;;;15.03;100.00;100715.30;5079635;57;1145538;-66
2022/10/08 08:15:00;;;;;;;17.20;11.47;;;;;;;15.08;100.00;100707.23;5109029;57;1145339;-67
2022/10/08 08:20:07;;;;;;;20.83;12.60;;;;;;;15.03;100.00;100723.28;5119527;57;1145150;-66
2022/10/08 08:25:13;;;;;;;18.47;10.57;;;;;;;14.95;100.00;100720.02;5158895;57;1145260;-67
2022/10/08 08:30:19;;;;;;;21.30;11.57;;;;;;;14.98;100.00;100709.55;5125564;56;1145264;-67
2022/10/08 08:35:25;;;;;;;23.67;12.13;;;;;;;15.02;100.00;100709.13;5121381;57;1145277;-68
2022/10/08 08:40:30;;;;;;;19.47;11.13;;;;;;;15.12;100.00;100697.14;5145780;57;1145399;-67
2022/10/08 08:45:39;;;;;;;18.70;10.73;;;;;;;15.26;100.00;100707.83;5163668;57;1145292;-69
2022/10/08 08:50:49;;;;;;;13.87;10.53;;;;;;;15.27;100.00;100697.52;5086728;57;1145142;-68
2022/10/08 08:55:58;;;;;;;22.53;9.47;;;;;;;15.28;100.00;100704.50;5079705;58;1145578;-69
2022/10/08 09:01:11;;;;;;;20.10;9.90;;;;;;;15.32;100.00;100707.23;5079483;58;1143461;-67
2022/10/08 09:06:19;;;;;;;;;;;;;;;15.33;100.00;100712.42;5083437;58;1143242;-68
2022/10/08 09:11:25;;;;;;;16.73;8.30;;;;;;;15.37;100.00;100700.49;5110165;57;978437;-67
2022/10/08 09:16:32;;;;;;;12.83;9.23;;;;;;;15.49;100.00;100693.98;5160256;57;1141196;-67
2022/10/08 09:21:38;;;;;;;30.60;11.60;;;;;;;15.72;100.00;100706.99;5075175;56;1143109;-69
2022/10/08 09:26:43;;;;;;;22.27;12.53;;;;;;;15.75;100.00;100702.17;5081035;57;1145290;-66
2022/10/08 09:31:50;;;;;;;21.63;8.40;;;;;;;15.76;100.00;100703.02;5143665;57;1144858;-67
2022/10/08 09:37:04;;;;;;;13.93;7.70;;;;;;;15.76;100.00;100708.34;5125378;56;1143160;-70
2022/10/08 09:42:16;;;;;;;18.13;7.73;;;;;;;15.74;100.00;100704.50;5148821;57;1143191;-68
2022/10/08 09:47:25;;;;;;;17.40;10.10;;;;;;;15.73;100.00;100707.34;5146458;57;1143202;-66
2022/10/08 09:52:34;;;;;;;19.63;9.83;;;;;;;15.76;100.00;100711.86;5153354;57;1145253;-67
2022/10/08 09:57:48;;;;;;;10.80;6.63;;;;;;;15.77;100.00;100714.03;5144950;57;1143258;-66
2022/10/08 10:02:56;;;;;;;14.77;5.67;;;;;;;15.83;99.62;100718.30;5136475;57;1143247;-69
2022/10/08 10:08:02;;;;;;;10.43;5.07;;;;;;;15.82;99.29;100715.77;5136342;57;1141256;-67
2022/10/08 10:13:21;;;;;;;10.33;4.97;;;;;;;15.90;97.32;100719.86;5133049;57;1141361;-69
2022/10/08 10:18:36;;;;;;;14.67;5.03;;;;;;;16.00;97.85;100710.48;5136491;57;1139082;-68
2022/10/08 10:23:50;;;;;;;6.17;2.97;;;;;;;16.09;91.72;100726.92;5072085;58;1139056;-67
2022/10/08 10:29:15;;;;;;;;;;;;;;;16.14;88.41;100716.65;4993566;59;1136976;-68
2022/10/08 10:34:31;;;;;;;7.10;3.27;;;;;;;16.22;89.00;100726.56;4863370;60;974427;-69
2022/10/08 10:39:47;;;;;;;10.87;3.80;;;;;;;16.31;89.60;100709.66;4909102;60;1135174;-66
2022/10/08 10:45:16;;;;;;;5.23;2.77;;;;;;;16.35;87.70;100715.86;5106746;57;1139106;-69
2022/10/08 10:50:29;;;;;;;10.67;3.70;;;;;;;16.34;84.12;100713.37;5156505;57;1139233;-69
2022/10/08 10:55:50;;;;;;;12.03;3.63;;;;;;;16.19;84.77;100721.86;5151634;57;1141047;-70
2022/10/08 11:01:32;;;;;;;17.57;4.03;;;;;;;16.16;86.15;100716.01;5162382;57;1141496;-67
2022/10/08 11:07:06;;;;;;;12.07;4.60;;;;;;;16.12;86.49;100714.13;5141620;57;1141147;-70
2022/10/08 11:12:31;;;;;;;11.60;4.83;;;;;;;16.15;85.29;100704.99;5110792;57;1141371;-69
2022/10/08 11:18:19;;;;;;;9.60;5.23;;;;;;;16.17;85.15;100693.67;5158122;57;1141440;-67
2022/10/08 11:24:08;;;;;;;13.37;5.10;;;;;;;16.18;85.97;100694.02;5163048;57;1139143;-69
2022/10/08 11:29:27;;;;;;;8.50;3.33;;;;;;;16.19;85.24;100696.51;5162934;57;1138968;-68
2022/10/08 11:34:38;;;;;;;8.23;2.87;;;;;;;16.22;84.58;100703.38;5158361;57;1136939;-67
2022/10/08 11:40:21;;;;;;;17.97;3.93;;;;;;;16.18;83.39;100704.20;5162880;57;1136956;-67
2022/10/08 11:45:34;;;;;;;7.03;2.87;;;;;;;16.18;84.20;100703.36;5163070;57;1141047;-66
2022/10/08 11:50:40;;;;;;;13.32;3.30;;;;;;;16.14;82.34;100695.30;5158141;57;1139005;-66
2022/10/08 11:55:52;;;;;;;14.17;5.03;;;;;;;16.14;82.95;100701.98;5162634;57;1141122;-66
2022/10/08 12:01:05;;;;;;;11.20;3.27;;;;;;;16.10;82.45;100693.42;5162792;57;1141137;-69
2022/10/08 12:06:24;;;;;;;9.70;2.90;;;;;;;16.12;83.37;100687.94;5163270;57;1141125;-69
2022/10/08 12:11:40;;;;;;;9.70;3.63;;;;;;;16.13;82.04;100685.13;5159329;57;1139053;-68
2022/10/08 12:16:59;;;;;;;9.73;3.80;;;;;;;16.15;82.56;100689.82;5156556;57;1139002;-68
2022/10/08 12:22:23;;;;;;;9.80;3.43;;;;;;;16.19;82.89;100683.17;5110553;57;1139066;-67
2022/10/08 12:27:36;;;;;;;13.57;4.60;;;;;;;16.19;82.96;100678.36;5084276;57;1139246;-67
2022/10/08 12:32:49;;;;;;;16.40;3.43;;;;;;;16.22;82.87;100678.03;5154835;57;1141092;-67
2022/10/08 12:38:01;;;;;;;9.45;3.72;;;;;;;16.19;83.25;100662.34;5154539;57;1141143;-66
2022/10/08 12:43:42;;;;;;;11.74;3.70;;;;;;;16.25;83.03;100670.22;5128565;57;1139178;-69
2022/10/08 12:49:00;;;;;;;13.23;3.73;;;;;;;16.32;84.21;100667.30;4826040;61;1141161;-67
2022/10/08 12:54:09;;;;;;;9.93;3.87;;;;;;;16.47;83.93;100672.45;4826220;61;1139094;-68
2022/10/08 12:59:15;;;;;;;9.43;3.70;;;;;;;16.49;83.01;100671.31;4873607;59;1137154;-68
2022/10/08 13:04:25;;;;;;;7.65;3.12;;;;;;;16.55;84.34;100675.17;4875364;60;1137046;-68
2022/10/08 13:09:36;;;;;;;14.53;4.20;;;;;;;16.50;82.97;100664.95;4902932;59;1136958;-69
2022/10/08 13:14:41;;;;;;;14.47;4.37;;;;;;;16.52;83.36;100657.63;4913839;60;1139104;-66
2022/10/08 13:19:48;;;;;;;9.73;3.80;;;;;;;16.54;83.97;100674.83;4916121;60;1139108;-70
2022/10/08 13:24:53;;;;;;;9.50;3.67;;;;;;;16.51;82.62;100678.64;5024786;57;1137039;-67
2022/10/08 13:30:03;;;;;;;10.13;4.60;;;;;;;16.51;83.33;100683.14;5143338;56;1136950;-70
2022/10/08 13:35:22;;;;;;;11.80;3.70;;;;;;;16.48;83.59;100679.47;4971701;59;1139154;-67
2022/10/08 13:40:29;;;;;;;10.50;3.73;;;;;;;16.60;84.29;100683.58;5155947;57;1138960;-70
2022/10/08 13:45:37;;;;;;;8.10;3.70;;;;;;;16.73;83.30;100678.70;5159147;56;1137080;-71
2022/10/08 13:50:46;;;;;;;13.10;3.43;;;;;;;16.71;83.00;100678.52;5030034;57;1255054;-67
2022/10/08 13:55:52;;;;;;;14.63;3.02;;;;;;;16.63;83.44;100679.30;5038265;57;1141359;-67
2022/10/08 14:00:57;;;;;;;8.10;3.40;;;;;;;16.53;82.57;100691.84;5154113;56;1141398;-68
2022/10/08 14:06:03;;;;;;;11.13;2.77;;;;;;;16.47;82.78;100686.64;5152671;57;1139006;-68
2022/10/08 14:11:09;;;;;;;10.60;4.00;;;;;;;16.52;82.30;100689.66;5075278;57;1141086;-70
2022/10/08 14:16:15;;;;;;;9.87;2.80;;;;;;;16.58;83.41;100684.22;5076569;57;1141147;-66
2022/10/08 14:21:20;;;;;;;8.20;3.17;;;;;;;16.63;82.02;100689.14;5060451;57;1139007;-70
2022/10/08 14:26:26;;;;;;;13.80;3.57;;;;;;;16.66;82.62;100690.14;5074945;57;1139041;-70
2022/10/08 14:31:33;;;;;;;7.70;2.10;;;;;;;16.70;82.49;100693.70;5063886;57;1141402;-68
2022/10/08 14:36:41;;;;;;;4.87;2.83;;;;;;;16.82;78.40;100691.12;5124549;56;1139260;-70
2022/10/08 14:41:47;;;;;;;11.60;3.13;;;;;;;16.85;78.98;100688.14;5075733;57;1139044;-68
2022/10/08 14:46:53;;;;;;;9.93;3.03;;;;;;;16.79;77.47;100685.27;5116349;56;1141175;-70
2022/10/08 14:51:58;;;;;;;7.07;2.80;;;;;;;16.75;78.34;100691.41;5096172;57;1139209;-69
2022/10/08 14:57:05;;;;;;;2.83;1.37;;;;;;;16.63;77.82;100693.98;5115465;57;1139321;-68
2022/10/08 15:02:14;;;;;;;7.93;2.00;;;;;;;16.52;76.93;100691.00;5160296;56;1139384;-66
2022/10/08 15:07:20;;;;;;;6.67;2.03;;;;;;;16.95;77.49;100689.41;5144454;57;1138988;-68
2022/10/08 15:12:25;;;;;;;7.17;1.90;;;;;;;17.23;75.57;100691.42;5144390;57;1139569;-70
2022/10/08 15:17:31;;;;;;;8.77;2.40;;;;;;;16.97;75.82;100692.73;5138325;57;1138888;-68
2022/10/08 15:22:37;;;;;;;3.17;1.60;;;;;;;16.81;76.70;100696.12;5156778;57;1139130;-67
2022/10/08 15:27:43;;;;;;;7.30;1.90;;;;;;;16.64;77.43;100703.68;5156871;57;1139093;-68
2022/10/08 15:32:48;;;;;;;6.87;1.87;;;;;;;16.47;78.16;100697.31;5165199;57;1139307;-68
2022/10/08 15:37:54;;;;;;;6.90;2.83;;;;;;;16.40;78.77;100697.56;5160644;57;1138967;-69
2022/10/08 15:42:59;;;;;;;8.87;2.77;;;;;;;16.33;79.49;100694.34;5128541;57;1139008;-70
2022/10/08 15:48:05;;;;;;;11.23;2.93;;;;;;;16.28;79.80;100700.12;5091803;57;1139057;-69
2022/10/08 15:53:12;;;;;;;11.57;3.03;;;;;;;16.22;80.42;100709.21;5144832;57;1141119;-68
2022/10/08 15:58:19;;;;;;;6.90;2.60;;;;;;;16.10;80.91;100713.93;5159910;57;1141171;-68
2022/10/08 16:03:25;;;;;;;9.50;2.93;;;;;;;16.02;81.83;100729.37;5136378;57;1139024;-67
2022/10/08 16:08:32;;;;;;;6.33;2.70;;;;;;;15.92;82.56;100735.72;5072489;57;1139373;-67
2022/10/08 16:13:38;;;;;;;12.80;2.73;;;;;;;15.82;83.25;100747.28;5082303;57;1139381;-66
2022/10/08 16:18:46;;;;;;;4.30;1.63;;;;;;;15.75;83.93;100755.52;5114228;57;1141253;-68
2022/10/08 16:23:52;;;;;;;11.27;3.27;;;;;;;15.63;87.83;100774.02;5101498;57;1138953;-67
2022/10/08 16:29:02;;;;;;;6.77;3.50;;;;;;;15.28;92.38;100783.95;5069761;56;1141101;-67
2022/10/08 16:34:20;;;;;;;8.10;3.20;;;;;;;14.93;95.42;100802.36;5048473;58;1139317;-67
2022/10/08 16:39:26;;;;;;;10.23;2.17;;;;;;;14.60;98.49;100815.57;5048468;58;1139131;-67
2022/10/08 16:44:32;;;;;;;3.93;1.93;;;;;;;14.26;100.00;100823.86;5097034;57;1141161;-70
2022/10/08 16:49:38;;;;;;;8.87;2.87;;;;;;;14.01;100.00;100838.95;5100382;57;1141248;-68
2022/10/08 16:54:44;;;;;;;5.13;2.43;;;;;;;13.82;100.00;100842.84;5118690;57;1139049;-66
2022/10/08 16:59:51;;;;;;;6.20;2.10;;;;;;;13.72;100.00;100856.94;5120754;57;1139066;-69
2022/10/08 17:04:58;;;;;;;10.93;3.13;;;;;;;13.56;100.00;100854.37;5082417;57;1139284;-66
2022/10/08 17:10:04;;;;;;;7.50;2.53;;;;;;;13.48;100.00;100866.97;5091115;57;1141256;-68
2022/10/08 17:15:10;;;;;;;12.70;3.60;;;;;;;13.41;100.00;100876.92;5085341;57;1139523;-70
2022/10/08 17:20:17;;;;;;;4.43;2.67;;;;;;;13.35;100.00;100866.31;5080054;57;1141332;-68
2022/10/08 17:25:23;;;;;;;7.47;2.93;;;;;;;13.39;100.00;100882.37;5081050;57;1139060;-66
2022/10/08 17:30:30;;;;;;;8.80;3.93;;;;;;;13.40;100.00;100891.19;5065716;57;1139103;-71
2022/10/08 17:35:36;;;;;;;10.20;3.33;;;;;;;13.39;100.00;100894.33;5048461;58;1138978;-69
2022/10/08 17:40:41;;;;;;;10.00;3.47;;;;;;;13.40;100.00;100906.64;5049032;58;1141182;-68
2022/10/08 17:45:47;;;;;;;7.27;3.20;;;;;;;13.34;100.00;100907.98;5118491;57;1141138;-68
2022/10/08 17:50:54;;;;;;;8.93;3.50;;;;;;;13.29;100.00;100919.46;5062803;57;1139012;-68
2022/10/08 17:56:06;;;;;;;8.83;3.67;;;;;;;13.20;100.00;100926.88;5104623;57;1139074;-69
2022/10/08 18:01:18;;;;;;;8.20;3.63;;;;;;;13.15;100.00;100928.20;5106498;57;1139294;-66
2022/10/08 18:06:27;;;;;;;6.03;2.80;;;;;;;13.08;100.00;100941.13;5158188;57;1139052;-70
2022/10/08 18:11:36;;;;;;;8.87;3.57;;;;;;;13.03;100.00;100944.14;5142228;57;1137102;-71
2022/10/08 18:16:42;;;;;;;9.43;3.87;;;;;;;12.99;100.00;100945.84;5141975;57;1141513;-70
2022/10/08 18:21:48;;;;;;;8.60;3.90;;;;;;;12.86;100.00;100948.64;5143778;57;1141585;-68
2022/10/08 18:26:53;;;;;;;8.27;3.17;;;;;;;12.73;100.00;100952.41;5132185;57;1141466;-68
2022/10/08 18:31:59;;;;;;;9.93;3.92;;;;;;;12.61;100.00;100966.16;5147341;57;1141452;-67
2022/10/08 18:37:05;;;;;;;5.03;3.20;;;;;;;12.50;100.00;100960.39;5150380;57;1141087;-68
2022/10/08 18:42:11;;;;;;;6.15;3.35;;;;;;;12.43;100.00;100970.26;5148133;57;1141164;-69
2022/10/08 18:47:18;;;;;;;6.87;2.47;;;;;;;12.36;100.00;100973.05;5140228;57;1141088;-67
2022/10/08 18:52:25;;;;;;;8.77;3.17;;;;;;;12.29;100.00;100966.88;5141846;57;1141234;-65
2022/10/08 18:57:31;;;;;;;10.45;3.98;;;;;;;12.22;100.00;100969.63;5149875;57;1141090;-66
2022/10/08 19:02:37;;;;;;;9.60;3.80;;;;;;;12.19;100.00;100973.02;5144190;57;1143220;-67
2022/10/08 19:07:42;;;;;;;12.40;3.23;;;;;;;12.13;100.00;100976.97;5085630;57;1141448;-66
2022/10/08 19:12:48;;;;;;;8.00;3.43;;;;;;;12.06;100.00;100974.92;5061874;57;1143128;-63
2022/10/08 19:17:54;;;;;;;9.33;4.00;;;;;;;12.03;100.00;100991.06;5091914;57;1141158;-66
2022/10/08 19:23:00;;;;;;;9.70;4.60;;;;;;;11.94;100.00;101012.47;5091058;57;1141461;-65
2022/10/08 19:28:05;;;;;;;13.40;6.27;;;;;;;11.88;100.00;101024.88;5083997;57;1141081;-67
2022/10/08 19:33:11;;;;;;;8.47;4.67;;;;;;;11.85;100.00;101046.30;5069999;57;1143213;-68
2022/10/08 19:38:17;;;;;;;7.13;4.10;;;;;;;11.87;100.00;101049.20;5079388;57;1141084;-64
2022/10/08 19:43:22;;;;;;;11.27;5.53;;;;;;;11.87;100.00;101041.26;5089873;57;1141099;-67
2022/10/08 19:48:28;;;;;;;9.93;4.50;;;;;;;11.80;100.00;101055.06;5074005;57;1143155;-68
2022/10/08 19:53:35;;;;;;;7.23;3.40;;;;;;;11.78;100.00;101059.63;5064447;57;1141063;-67
2022/10/08 19:58:43;;;;;;;8.27;4.43;;;;;;;11.78;100.00;101045.05;5048404;58;1140990;-68
2022/10/08 20:03:51;;;;;;;5.93;3.30;;;;;;;11.77;100.00;101051.31;5061238;57;1141259;-64
2022/10/08 20:09:00;;;;;;;5.87;3.60;;;;;;;11.72;100.00;101045.49;5162283;57;1141297;-66
2022/10/08 20:14:06;;;;;;;8.67;3.83;;;;;;;11.70;100.00;101061.98;5141471;57;1141129;-66
2022/10/08 20:19:22;;;;;;;6.07;3.10;;;;;;;11.64;100.00;101066.76;5116202;57;1141565;-68
2022/10/08 20:24:28;;;;;;;6.20;2.80;;;;;;;11.58;100.00;101074.33;5119532;57;1141205;-65
2022/10/08 20:29:34;;;;;;;12.60;3.27;;;;;;;11.53;100.00;101089.70;5112662;57;1141134;-66
2022/10/08 20:34:40;;;;;;;4.97;2.30;;;;;;;11.45;100.00;101094.24;5080917;57;1143311;-69
2022/10/08 20:39:45;;;;;;;4.37;2.00;;;;;;;11.43;100.00;101092.18;5080725;57;1141320;-66
2022/10/08 20:44:52;;;;;;;4.83;2.70;;;;;;;11.35;100.00;101099.81;5135528;57;1141342;-67
2022/10/08 20:49:57;;;;;;;5.80;2.20;;;;;;;11.26;100.00;101106.62;5111173;57;1141081;-64
2022/10/08 20:55:03;;;;;;;2.80;1.93;;;;;;;11.15;100.00;101113.13;5108062;57;1141122;-65
2022/10/08 21:00:10;;;;;;;3.57;1.50;;;;;;;11.06;100.00;101119.56;5111755;57;1141102;-70
2022/10/08 21:05:16;;;;;;;2.47;1.57;;;;;;;10.96;100.00;101121.17;5054307;58;1141329;-66
2022/10/08 21:10:22;;;;;;;1.73;1.27;;;;;;;10.89;100.00;101116.29;5097546;57;1141207;-69
2022/10/08 21:15:28;;;;;;;8.30;1.20;;;;;;;10.82;100.00;101133.56;5097165;57;1141065;-68
2022/10/08 21:20:38;;;;;;;7.73;1.70;;;;;;;10.72;100.00;101140.41;5127141;57;1141146;-66
2022/10/08 21:25:45;;;;;;;2.90;1.47;;;;;;;10.63;100.00;101145.50;5102727;57;1139129;-68
2022/10/08 21:30:54;;;;;;;1.70;1.37;;;;;;;10.58;100.00;101153.73;5093702;57;1139276;-68
2022/10/08 21:36:00;;;;;;;3.43;1.60;;;;;;;10.53;100.00;101161.15;5093474;57;1139063;-65
2022/10/08 21:41:12;;;;;;;4.77;1.40;;;;;;;10.45;100.00;101166.94;5090368;57;1139068;-66
2022/10/08 21:46:22;;;;;;;3.37;1.50;;;;;;;10.42;100.00;101172.89;5120573;57;1139005;-68
2022/10/08 21:51:29;;;;;;;3.37;1.77;;;;;;;10.38;100.00;101166.98;5088980;57;1139097;-65
2022/10/08 21:56:40;;;;;;;4.00;1.70;;;;;;;10.36;100.00;101168.88;5095647;57;1138994;-70
2022/10/08 22:01:51;;;;;;;2.23;2.03;;;;;;;10.35;100.00;101175.12;5096334;57;1139038;-65
2022/10/08 22:06:58;;;;;;;5.60;2.90;;;;;;;10.30;100.00;101178.53;5140192;57;1139076;-65
2022/10/08 22:12:04;;;;;;;4.27;2.30;;;;;;;10.21;100.00;101185.28;5156147;57;1139105;-68
2022/10/08 22:17:10;;;;;;;1.43;1.33;;;;;;;10.15;100.00;101193.56;5071312;58;1139078;-69
2022/10/08 22:22:15;;;;;;;2.37;1.80;;;;;;;10.06;100.00;101197.30;5068218;58;1139399;-66
2022/10/08 22:27:22;;;;;;;7.23;2.27;;;;;;;9.97;100.00;101202.68;5081658;57;1137039;-67
2022/10/08 22:32:27;;;;;;;4.03;2.37;;;;;;;9.93;100.00;101211.73;5156359;57;1134934;-66
2022/10/08 22:37:33;;;;;;;7.17;2.07;;;;;;;9.87;100.00;101211.67;5156580;57;1139026;-65
2022/10/08 22:42:39;;;;;;;4.97;2.12;;;;;;;9.84;100.00;101221.11;5098867;57;1139088;-71
2022/10/08 22:47:48;;;;;;;9.77;2.90;;;;;;;9.84;100.00;101217.62;5139890;57;1138936;-69
2022/10/08 22:52:54;;;;;;;5.73;2.60;;;;;;;9.79;100.00;101227.15;5072500;58;1138980;-69
2022/10/08 22:58:00;;;;;;;4.93;2.63;;;;;;;9.74;100.00;101229.72;5072375;58;1139223;-68
2022/10/08 23:03:06;;;;;;;6.70;2.50;;;;;;;9.69;100.00;101231.32;5072454;58;1139059;-64